createdAt,value
2023-03-06T00:01:19.274Z,11.23
2023-03-06T00:03:48.065Z,11.53
2023-03-06T00:06:16.753Z,11.60
2023-03-06T00:08:45.436Z,11.60
2023-03-06T00:11:15.438Z,11.70
2023-03-06T00:13:44.045Z,10.63
2023-03-06T00:16:14.015Z,11.90
2023-03-06T00:18:44.034Z,11.40
2023-03-06T00:21:12.712Z,12.07
2023-03-06T00:23:41.852Z,12.10
2023-03-06T00:26:10.693Z,12.37
2023-03-06T00:28:39.412Z,13.30
2023-03-06T00:31:08.085Z,11.57
2023-03-06T00:33:38.090Z,11.97
2023-03-06T00:36:07.382Z,11.37
2023-03-06T00:38:37.137Z,11.10
2023-03-06T00:41:09.976Z,13.90
2023-03-06T00:43:38.624Z,12.20
2023-03-06T00:46:07.632Z,12.40
2023-03-06T00:48:36.435Z,12.37
2023-03-06T00:51:07.032Z,12.90
2023-03-06T00:53:35.685Z,12.77
2023-03-06T00:56:04.277Z,11.70
2023-03-06T00:58:32.912Z,12.23
2023-03-06T01:01:01.552Z,12.30
2023-03-06T01:03:30.172Z,11.27
2023-03-06T01:05:59.274Z,12.20
2023-03-06T01:08:29.272Z,12.50
2023-03-06T01:10:57.889Z,12.23
2023-03-06T01:13:26.490Z,13.80
2023-03-06T01:15:55.108Z,12.90
2023-03-06T01:18:23.931Z,12.87
2023-03-06T01:20:52.550Z,13.07
2023-03-06T01:23:21.154Z,14.07
2023-03-06T01:25:51.091Z,13.30
2023-03-06T01:28:19.725Z,12.20
2023-03-06T01:30:48.440Z,13.03
2023-03-06T01:33:17.253Z,12.87
2023-03-06T01:35:45.990Z,13.10
2023-03-06T01:38:14.827Z,13.47
2023-03-06T01:40:43.415Z,13.20
2023-03-06T01:43:27.075Z,12.93
2023-03-06T01:46:27.525Z,12.73
2023-03-06T01:48:58.110Z,14.40
2023-03-06T01:51:29.683Z,13.07
2023-03-06T01:54:00.136Z,13.60
2023-03-06T01:56:29.886Z,12.83
2023-03-06T01:58:59.868Z,12.43
2023-03-06T02:01:28.805Z,12.63
2023-03-06T02:03:57.505Z,13.30
2023-03-06T02:06:26.311Z,13.00
2023-03-06T02:08:55.513Z,12.53
2023-03-06T02:11:25.284Z,13.10
2023-03-06T02:13:54.893Z,13.90
2023-03-06T02:16:26.902Z,13.40
2023-03-06T02:18:55.841Z,13.03
2023-03-06T02:21:26.606Z,13.40
2023-03-06T02:24:07.895Z,14.17
2023-03-06T02:26:38.996Z,12.87
2023-03-06T02:29:08.623Z,14.00
2023-03-06T02:31:37.453Z,13.63
2023-03-06T02:34:09.794Z,13.10
2023-03-06T02:36:42.925Z,14.13
2023-03-06T02:39:11.622Z,14.40
2023-03-06T02:41:41.899Z,12.77
2023-03-06T02:44:10.544Z,14.30
2023-03-06T02:46:39.167Z,14.00
2023-03-06T02:49:07.816Z,13.20
2023-03-06T02:51:36.411Z,12.63
2023-03-06T02:54:05.300Z,14.33
2023-03-06T02:56:33.939Z,13.57
2023-03-06T02:59:04.053Z,14.57
2023-03-06T03:01:32.849Z,13.10
2023-03-06T03:04:01.540Z,13.17
2023-03-06T03:06:30.204Z,12.43
2023-03-06T03:08:58.854Z,12.97
2023-03-06T03:11:27.520Z,13.93
2023-03-06T03:13:56.148Z,15.47
2023-03-06T03:16:26.067Z,13.63
2023-03-06T03:18:54.704Z,13.87
2023-03-06T03:21:23.257Z,12.83
2023-03-06T03:23:51.841Z,13.80
2023-03-06T03:26:21.794Z,14.07
2023-03-06T03:28:50.410Z,13.47
2023-03-06T03:31:19.102Z,12.93
2023-03-06T03:33:49.041Z,13.20
2023-03-06T03:36:17.621Z,14.03
2023-03-06T03:38:46.221Z,13.37
2023-03-06T03:41:14.861Z,14.63
2023-03-06T03:43:43.967Z,14.17
2023-03-06T03:46:12.618Z,13.83
2023-03-06T03:48:41.276Z,14.27
2023-03-06T03:51:12.775Z,15.50
2023-03-06T03:53:41.394Z,14.40
2023-03-06T03:56:10.092Z,14.63
2023-03-06T03:58:38.827Z,13.90
2023-03-06T04:01:07.776Z,14.30
2023-03-06T04:03:36.473Z,13.63
2023-03-06T04:06:05.236Z,13.63
2023-03-06T04:08:35.513Z,14.13
2023-03-06T04:11:04.260Z,14.00
2023-03-06T04:13:33.128Z,14.30
2023-03-06T04:16:01.787Z,13.47
2023-03-06T04:18:30.418Z,13.93
2023-03-06T04:20:59.061Z,13.87
2023-03-06T04:23:27.879Z,14.47
2023-03-06T04:25:57.905Z,15.97
2023-03-06T04:28:27.140Z,13.90
2023-03-06T04:30:55.711Z,14.53
2023-03-06T04:33:24.553Z,14.10
2023-03-06T04:35:53.240Z,13.70
2023-03-06T04:38:21.897Z,13.60
2023-03-06T04:40:50.589Z,12.67
2023-03-06T04:43:20.846Z,13.90
2023-03-06T04:45:49.501Z,15.30
2023-03-06T04:48:19.716Z,13.33
2023-03-06T04:50:48.452Z,13.77
2023-03-06T04:53:19.553Z,14.10
2023-03-06T04:55:48.383Z,13.60
2023-03-06T04:58:16.968Z,14.43
2023-03-06T05:00:47.022Z,14.30
2023-03-06T05:03:15.727Z,14.30
2023-03-06T05:05:44.477Z,13.87
2023-03-06T05:08:15.252Z,14.13
2023-03-06T05:10:44.162Z,13.63
2023-03-06T05:13:12.849Z,13.10
2023-03-06T05:15:42.005Z,13.47
2023-03-06T05:18:11.969Z,12.90
2023-03-06T05:20:40.603Z,13.90
2023-03-06T05:23:09.300Z,13.10
2023-03-06T05:25:39.581Z,14.10
2023-03-06T05:28:08.702Z,14.17
2023-03-06T05:30:37.754Z,13.43
2023-03-06T05:33:06.379Z,13.80
2023-03-06T05:35:36.397Z,13.20
2023-03-06T05:38:05.085Z,13.43
2023-03-06T05:40:33.707Z,13.10
2023-03-06T05:43:02.345Z,13.53
2023-03-06T05:45:30.948Z,13.70
2023-03-06T05:47:59.580Z,14.20
2023-03-06T05:50:28.576Z,13.30
2023-03-06T05:52:58.513Z,13.40
2023-03-06T05:55:27.221Z,13.43
2023-03-06T05:57:55.902Z,13.30
2023-03-06T06:00:25.306Z,12.83
2023-03-06T06:02:54.330Z,13.93
2023-03-06T06:05:22.928Z,13.97
2023-03-06T06:07:51.595Z,13.83
2023-03-06T06:10:22.712Z,13.47
2023-03-06T06:12:51.368Z,14.70
2023-03-06T06:15:20.367Z,12.87
2023-03-06T06:17:49.033Z,13.90
2023-03-06T06:20:17.872Z,14.30
2023-03-06T06:22:46.470Z,14.30
2023-03-06T06:25:15.512Z,14.07
2023-03-06T06:27:45.435Z,13.80
2023-03-06T06:30:14.835Z,13.87
2023-03-06T06:32:43.616Z,14.20
2023-03-06T06:35:12.489Z,12.80
2023-03-06T06:37:41.160Z,14.07
2023-03-06T06:40:12.203Z,14.27
2023-03-06T06:42:40.775Z,14.60
2023-03-06T06:45:12.138Z,13.97
2023-03-06T06:47:41.604Z,12.10
2023-03-06T06:50:13.335Z,11.70
2023-03-06T06:52:41.951Z,12.97
2023-03-06T06:55:11.483Z,13.03
2023-03-06T06:57:41.125Z,12.20
2023-03-06T07:00:14.499Z,12.53
2023-03-06T07:02:43.166Z,11.80
2023-03-06T07:05:11.990Z,11.13
2023-03-06T07:07:40.662Z,12.83
2023-03-06T07:10:15.433Z,9.73
2023-03-06T07:12:44.247Z,11.33
2023-03-06T07:15:16.078Z,11.93
2023-03-06T07:17:44.720Z,12.30
2023-03-06T07:20:13.352Z,11.70
2023-03-06T07:22:50.915Z,11.70
2023-03-06T07:25:20.746Z,12.27
2023-03-06T07:27:53.898Z,11.30
2023-03-06T07:30:24.751Z,12.00
2023-03-06T07:32:55.023Z,12.47
2023-03-06T07:35:25.090Z,13.77
2023-03-06T07:37:53.972Z,14.33
2023-03-06T07:40:22.824Z,13.27
2023-03-06T07:42:54.280Z,13.17
2023-03-06T07:45:24.772Z,13.33
2023-03-06T07:47:54.152Z,12.47
2023-03-06T07:50:22.880Z,13.30
2023-03-06T07:52:52.014Z,13.23
2023-03-06T07:55:21.070Z,13.43
2023-03-06T07:57:51.327Z,11.47
2023-03-06T08:00:20.740Z,12.20
2023-03-06T08:02:50.724Z,11.70
2023-03-06T08:05:19.619Z,12.33
2023-03-06T08:07:48.239Z,13.00
2023-03-06T08:10:18.172Z,12.10
2023-03-06T08:12:46.910Z,12.57
2023-03-06T08:15:15.671Z,12.33
2023-03-06T08:17:44.592Z,11.30
2023-03-06T08:20:15.400Z,12.87
2023-03-06T08:22:43.998Z,12.50
2023-03-06T08:25:13.361Z,12.30
2023-03-06T08:27:42.120Z,11.50
2023-03-06T08:30:11.803Z,11.20
2023-03-06T08:32:40.494Z,11.57
2023-03-06T08:35:09.812Z,10.97
2023-03-06T08:37:39.835Z,12.00
2023-03-06T08:40:10.101Z,10.67
2023-03-06T08:42:38.764Z,9.87
2023-03-06T08:45:08.827Z,8.63
2023-03-06T08:47:37.434Z,8.57
2023-03-06T08:50:06.618Z,8.90
2023-03-06T08:52:35.268Z,9.60
2023-03-06T08:55:05.970Z,7.50
2023-03-06T08:57:34.648Z,7.70
2023-03-06T09:00:05.927Z,7.83
2023-03-06T09:02:34.666Z,7.67
2023-03-06T09:05:05.872Z,6.80
2023-03-06T09:07:34.811Z,6.23
2023-03-06T09:10:05.339Z,6.23
2023-03-06T09:12:47.381Z,6.70
2023-03-06T09:15:18.322Z,6.60
2023-03-06T09:17:47.322Z,6.37
2023-03-06T09:20:16.460Z,6.27
2023-03-06T09:22:45.600Z,6.00
2023-03-06T09:25:20.164Z,5.30
2023-03-06T09:27:58.365Z,5.73
2023-03-06T09:30:33.976Z,5.80
2023-03-06T09:33:02.657Z,5.10
2023-03-06T09:35:31.264Z,5.90
2023-03-06T09:37:59.893Z,5.23
2023-03-06T09:40:38.471Z,5.03
2023-03-06T09:43:07.145Z,5.00
2023-03-06T09:45:37.569Z,5.17
2023-03-06T09:48:11.988Z,5.20
2023-03-06T09:50:44.514Z,5.33
2023-03-06T09:53:21.837Z,6.17
2023-03-06T09:55:59.117Z,5.97
2023-03-06T09:58:28.800Z,6.10
2023-03-06T10:01:01.552Z,5.60
2023-03-06T10:03:32.732Z,5.80
2023-03-06T10:06:04.220Z,5.13
2023-03-06T10:08:42.313Z,5.77
2023-03-06T10:11:14.372Z,5.90
2023-03-06T10:13:45.256Z,5.40
2023-03-06T10:16:23.132Z,4.80
2023-03-06T10:18:52.012Z,4.80
2023-03-06T10:21:31.370Z,4.60
2023-03-06T10:24:06.277Z,5.70
2023-03-06T10:26:39.273Z,4.70
2023-03-06T10:29:23.336Z,5.17
2023-03-06T10:32:00.171Z,5.60
2023-03-06T10:34:31.061Z,5.93
2023-03-06T10:37:00.193Z,5.37
2023-03-06T10:39:30.666Z,4.50
2023-03-06T10:42:00.846Z,4.73
2023-03-06T10:44:29.584Z,4.10
2023-03-06T10:46:58.216Z,5.03
2023-03-06T10:49:33.720Z,4.10
2023-03-06T10:52:06.707Z,4.17
2023-03-06T10:54:36.621Z,4.50
2023-03-06T10:57:24.984Z,5.00
2023-03-06T10:59:55.380Z,4.43
2023-03-06T11:02:29.489Z,4.37
2023-03-06T11:04:59.495Z,4.60
2023-03-06T11:07:29.295Z,4.57
2023-03-06T11:10:13.666Z,4.80
2023-03-06T11:12:44.477Z,5.30
2023-03-06T11:15:22.431Z,4.70
2023-03-06T11:18:02.872Z,4.63
2023-03-06T11:20:50.024Z,5.63
2023-03-06T11:23:22.327Z,4.80
2023-03-06T11:25:54.778Z,4.20
2023-03-06T11:28:27.584Z,4.57
2023-03-06T11:30:59.956Z,4.47
2023-03-06T11:33:32.199Z,3.90
2023-03-06T11:36:06.298Z,5.00
2023-03-06T11:38:40.709Z,4.07
2023-03-06T11:41:16.303Z,5.00
2023-03-06T11:43:52.438Z,5.10
2023-03-06T11:46:23.811Z,4.70
2023-03-06T11:48:54.968Z,4.70
2023-03-06T11:51:25.862Z,5.47
2023-03-06T11:53:54.944Z,4.83
2023-03-06T11:56:32.790Z,5.53
2023-03-06T11:59:21.642Z,4.80
2023-03-06T12:01:57.605Z,5.73
2023-03-06T12:04:39.177Z,5.17
2023-03-06T12:07:21.506Z,4.87
2023-03-06T12:09:56.112Z,4.97
2023-03-06T12:12:50.750Z,4.30
2023-03-06T12:15:24.780Z,5.33
2023-03-06T12:18:05.053Z,4.70
2023-03-06T12:20:43.871Z,4.00
2023-03-06T12:23:21.032Z,5.30
2023-03-06T12:25:53.457Z,4.50
2023-03-06T12:28:32.970Z,5.10
2023-03-06T12:31:33.174Z,4.93
2023-03-06T12:34:08.762Z,4.27
2023-03-06T12:36:47.721Z,5.00
2023-03-06T12:39:18.970Z,5.10
2023-03-06T12:41:54.252Z,5.17
2023-03-06T12:44:44.093Z,4.20
2023-03-06T12:47:16.741Z,4.50
2023-03-06T12:49:50.845Z,5.00
2023-03-06T12:52:29.708Z,5.20
2023-03-06T12:55:00.163Z,5.53
2023-03-06T12:57:28.995Z,4.70
2023-03-06T12:59:57.657Z,4.77
2023-03-06T13:02:55.279Z,4.97
2023-03-06T13:05:39.473Z,4.60
2023-03-06T13:08:26.625Z,4.70
2023-03-06T13:11:16.161Z,5.10
2023-03-06T13:13:46.260Z,5.20
2023-03-06T13:16:15.741Z,4.83
2023-03-06T13:18:51.519Z,5.07
2023-03-06T13:21:45.544Z,5.20
2023-03-06T13:24:19.113Z,4.30
2023-03-06T13:26:59.454Z,5.23
2023-03-06T13:30:09.658Z,4.90
2023-03-06T13:32:38.365Z,5.40
2023-03-06T13:35:49.462Z,5.70
2023-03-06T13:38:34.445Z,4.83
2023-03-06T13:41:40.317Z,5.07
2023-03-06T13:44:42.392Z,5.33
2023-03-06T13:48:10.946Z,4.93
2023-03-06T13:50:41.313Z,4.90
2023-03-06T13:53:52.655Z,4.93
2023-03-06T13:56:52.593Z,4.40
2023-03-06T14:00:10.295Z,4.70
2023-03-06T14:02:52.613Z,4.67
2023-03-06T14:05:21.361Z,4.70
2023-03-06T14:08:03.679Z,5.10
2023-03-06T14:10:34.655Z,4.53
2023-03-06T14:13:07.052Z,5.23
2023-03-06T14:15:44.482Z,5.23
2023-03-06T14:18:19.968Z,5.03
2023-03-06T14:20:52.736Z,4.30
2023-03-06T14:23:28.038Z,4.20
2023-03-06T14:26:00.904Z,4.50
2023-03-06T14:28:32.286Z,4.87
2023-03-06T14:31:02.251Z,4.17
2023-03-06T14:33:34.275Z,4.70
2023-03-06T14:36:04.606Z,4.33
2023-03-06T14:38:36.662Z,4.90
2023-03-06T14:41:06.247Z,4.93
2023-03-06T14:43:36.282Z,3.83
2023-03-06T14:46:07.840Z,4.70
2023-03-06T14:48:40.130Z,4.53
2023-03-06T14:51:15.436Z,4.13
2023-03-06T14:53:45.510Z,4.43
2023-03-06T14:56:17.781Z,4.50
2023-03-06T14:58:53.016Z,4.77
2023-03-06T15:01:30.510Z,4.43
2023-03-06T15:04:00.888Z,4.73
2023-03-06T15:06:34.460Z,4.97
2023-03-06T15:09:07.936Z,5.03
2023-03-06T15:11:56.956Z,4.40
2023-03-06T15:14:32.913Z,5.50
2023-03-06T15:17:23.818Z,5.53
2023-03-06T15:19:54.454Z,5.40
2023-03-06T15:22:29.166Z,4.50
2023-03-06T15:25:26.664Z,5.80
2023-03-06T15:27:56.759Z,4.70
2023-03-06T15:30:29.531Z,5.07
2023-03-06T15:33:12.174Z,4.57
2023-03-06T15:35:41.034Z,6.33
2023-03-06T15:38:25.385Z,4.60
2023-03-06T15:40:58.610Z,4.40
2023-03-06T15:43:28.633Z,6.63
2023-03-06T15:46:00.447Z,4.93
2023-03-06T15:48:29.366Z,4.60
2023-03-06T15:50:58.075Z,4.87
2023-03-06T15:53:26.786Z,4.40
2023-03-06T15:55:55.661Z,4.53
2023-03-06T15:58:26.810Z,4.93
2023-03-06T16:00:55.472Z,5.17
2023-03-06T16:03:25.589Z,4.97
2023-03-06T16:05:54.256Z,5.07
2023-03-06T16:08:22.925Z,5.03
2023-03-06T16:10:52.430Z,5.77
2023-03-06T16:13:27.225Z,5.20
2023-03-06T16:15:56.066Z,6.33
2023-03-06T16:18:26.055Z,5.47
2023-03-06T16:20:54.705Z,5.10
2023-03-06T16:23:23.416Z,5.27
2023-03-06T16:25:52.140Z,5.10
2023-03-06T16:28:20.930Z,5.03
2023-03-06T16:30:49.554Z,5.33
2023-03-06T16:33:18.372Z,5.97
2023-03-06T16:35:49.862Z,5.70
2023-03-06T16:38:18.579Z,5.30
2023-03-06T16:40:47.187Z,5.77
2023-03-06T16:43:16.481Z,5.90
2023-03-06T16:45:45.229Z,5.57
2023-03-06T16:48:17.890Z,7.20
2023-03-06T16:50:47.970Z,5.83
2023-03-06T16:53:16.636Z,5.27
2023-03-06T16:55:46.389Z,7.83
2023-03-06T16:58:15.248Z,6.33
2023-03-06T17:00:43.886Z,6.43
2023-03-06T17:03:12.598Z,5.43
2023-03-06T17:05:43.685Z,5.60
2023-03-06T17:08:14.071Z,5.80
2023-03-06T17:10:43.177Z,5.90
2023-03-06T17:13:12.412Z,5.73
2023-03-06T17:15:41.060Z,5.80
2023-03-06T17:18:09.671Z,6.77
2023-03-06T17:20:38.517Z,6.33
2023-03-06T17:23:07.172Z,5.93
2023-03-06T17:25:38.398Z,7.00
2023-03-06T17:28:07.049Z,6.90
2023-03-06T17:30:35.678Z,6.20
2023-03-06T17:33:04.518Z,7.23
2023-03-06T17:35:35.362Z,7.13
2023-03-06T17:38:04.450Z,6.53
2023-03-06T17:40:34.774Z,5.40
2023-03-06T17:43:04.767Z,7.57
2023-03-06T17:45:36.768Z,6.90
2023-03-06T17:48:05.778Z,7.00
2023-03-06T17:50:34.387Z,6.30
2023-03-06T17:53:03.033Z,7.00
2023-03-06T17:55:31.852Z,6.10
2023-03-06T17:58:00.651Z,6.53
2023-03-06T18:00:30.715Z,7.80
2023-03-06T18:02:59.319Z,7.07
2023-03-06T18:05:28.025Z,6.10
2023-03-06T18:07:56.694Z,7.10
2023-03-06T18:10:25.571Z,7.40
2023-03-06T18:12:54.290Z,6.90
2023-03-06T18:15:22.960Z,7.23
2023-03-06T18:17:52.954Z,7.00
2023-03-06T18:20:22.197Z,7.70
2023-03-06T18:22:50.849Z,7.20
2023-03-06T18:25:19.805Z,7.30
2023-03-06T18:27:48.733Z,7.63
2023-03-06T18:30:18.061Z,7.67
2023-03-06T18:32:46.714Z,7.47
2023-03-06T18:35:16.822Z,6.90
2023-03-06T18:37:45.490Z,7.50
2023-03-06T18:40:15.159Z,7.17
2023-03-06T18:42:43.836Z,6.73
2023-03-06T18:45:13.245Z,6.80
2023-03-06T18:47:42.217Z,6.83
2023-03-06T18:50:16.412Z,7.13
2023-03-06T18:52:46.538Z,7.47
2023-03-06T18:55:15.377Z,7.87
2023-03-06T18:57:43.986Z,7.63
2023-03-06T19:00:13.621Z,7.70
2023-03-06T19:02:42.292Z,7.43
2023-03-06T19:05:11.125Z,7.20
2023-03-06T19:07:40.360Z,7.40
2023-03-06T19:10:11.996Z,7.63
2023-03-06T19:12:40.653Z,7.90
2023-03-06T19:15:10.252Z,8.57
2023-03-06T19:17:38.938Z,8.30
2023-03-06T19:20:08.582Z,7.80
2023-03-06T19:22:37.355Z,7.30
2023-03-06T19:25:07.798Z,7.43
2023-03-06T19:27:39.409Z,8.00
2023-03-06T19:30:09.611Z,8.27
2023-03-06T19:32:38.332Z,7.50
2023-03-06T19:35:07.788Z,7.53
2023-03-06T19:37:36.427Z,7.57
2023-03-06T19:40:06.264Z,7.43
2023-03-06T19:42:34.932Z,7.50
2023-03-06T19:45:05.554Z,8.00
2023-03-06T19:47:34.216Z,7.87
2023-03-06T19:50:02.892Z,7.73
2023-03-06T19:52:31.667Z,8.70
2023-03-06T19:55:00.461Z,8.73
2023-03-06T19:57:29.365Z,8.60
2023-03-06T19:59:58.760Z,7.73
2023-03-06T20:02:29.199Z,7.30
2023-03-06T20:04:57.908Z,7.20
2023-03-06T20:07:26.632Z,7.43
2023-03-06T20:10:00.221Z,9.00
2023-03-06T20:12:28.959Z,7.93
2023-03-06T20:14:57.622Z,7.40
2023-03-06T20:17:26.344Z,7.27
2023-03-06T20:19:56.652Z,7.80
2023-03-06T20:22:25.474Z,7.60
2023-03-06T20:24:54.364Z,7.40
2023-03-06T20:27:23.098Z,8.07
2023-03-06T20:29:51.940Z,7.97
2023-03-06T20:32:20.967Z,8.73
2023-03-06T20:34:49.924Z,8.47
2023-03-06T20:37:19.953Z,7.90
2023-03-06T20:39:48.684Z,8.03
2023-03-06T20:42:17.702Z,7.97
2023-03-06T20:44:46.402Z,7.93
2023-03-06T20:47:15.411Z,9.13
2023-03-06T20:49:44.019Z,8.27
2023-03-06T20:52:12.772Z,7.47
2023-03-06T20:54:42.784Z,8.17
2023-03-06T20:57:11.447Z,8.00
2023-03-06T20:59:40.221Z,6.87
2023-03-06T21:02:10.650Z,7.73
2023-03-06T21:04:41.029Z,7.10
2023-03-06T21:07:09.837Z,6.90
2023-03-06T21:09:39.634Z,6.97
2023-03-06T21:12:09.658Z,7.57
2023-03-06T21:14:38.390Z,6.60
2023-03-06T21:17:07.080Z,7.93
2023-03-06T21:19:37.019Z,7.80
2023-03-06T21:22:05.612Z,9.07
2023-03-06T21:24:34.248Z,8.90
2023-03-06T21:27:03.601Z,8.90
2023-03-06T21:29:33.575Z,7.00
2023-03-06T21:32:02.206Z,6.93
2023-03-06T21:34:30.918Z,7.40
2023-03-06T21:36:59.547Z,7.60
2023-03-06T21:39:28.300Z,7.40
2023-03-06T21:41:56.960Z,8.33
2023-03-06T21:44:25.659Z,8.03
2023-03-06T21:46:56.040Z,8.00
2023-03-06T21:49:26.261Z,7.53
2023-03-06T21:51:54.917Z,7.87
2023-03-06T21:54:23.533Z,7.40
2023-03-06T21:56:52.391Z,7.33
2023-03-06T21:59:21.006Z,7.47
2023-03-06T22:01:49.696Z,8.00
2023-03-06T22:04:19.871Z,7.57
2023-03-06T22:06:48.590Z,7.87
2023-03-06T22:09:19.040Z,8.73
2023-03-06T22:11:47.911Z,8.97
2023-03-06T22:14:16.872Z,8.57
2023-03-06T22:16:45.534Z,7.30
2023-03-06T22:19:14.284Z,9.10
2023-03-06T22:21:44.334Z,8.17
2023-03-06T22:24:12.924Z,8.43
2023-03-06T22:26:41.578Z,8.03
2023-03-06T22:29:10.335Z,8.37
2023-03-06T22:31:40.381Z,9.13
2023-03-06T22:34:09.231Z,9.30
2023-03-06T22:36:37.843Z,10.63
2023-03-06T22:39:07.823Z,10.50
2023-03-06T22:41:36.378Z,8.50
2023-03-06T22:44:05.402Z,8.33
2023-03-06T22:46:34.334Z,8.77
2023-03-06T22:49:03.324Z,8.80
2023-03-06T22:51:31.965Z,8.17
2023-03-06T22:54:00.571Z,8.37
2023-03-06T22:56:30.623Z,8.23
2023-03-06T22:59:00.000Z,8.93
2023-03-06T23:01:30.126Z,7.03
2023-03-06T23:04:00.164Z,8.40
2023-03-06T23:06:30.783Z,8.77
2023-03-06T23:09:01.534Z,8.20
2023-03-06T23:11:31.755Z,8.00
2023-03-06T23:14:00.722Z,8.10
2023-03-06T23:16:29.384Z,7.50
2023-03-06T23:18:58.418Z,7.80
2023-03-06T23:21:27.098Z,8.20
2023-03-06T23:23:56.680Z,8.27
2023-03-06T23:26:27.236Z,6.90
2023-03-06T23:28:58.212Z,7.53
2023-03-06T23:31:29.053Z,7.37
2023-03-06T23:33:58.665Z,7.73
2023-03-06T23:36:28.160Z,7.93
2023-03-06T23:38:57.318Z,7.10
2023-03-06T23:41:26.202Z,7.90
2023-03-06T23:43:55.422Z,8.23
2023-03-06T23:46:25.520Z,8.32
2023-03-06T23:48:54.454Z,7.60
2023-03-06T23:51:23.578Z,8.20
2023-03-06T23:53:56.512Z,7.50
2023-03-06T23:56:25.635Z,7.20
2023-03-06T23:58:54.578Z,8.40
